OFK - Norfolk Rgnl/Karl Stefan Meml Fld

Pirep is a free, collaborative database of all public and private airports located within the United States. All pilots are welcome to contribute, edit, and improve any airport they have local knowledge about, no registration required.
Are you familiar with this airport? Help out other pilots by adding your local knowledge.
Uploaded photos will be licensed under a CC BY-SA 4.0 license. Please only upload photos you have the rights to use.
Tags
Public
Undocu­mented
METAR / TAF
Edit Tags
Food
Camping
Lodging
Car Rental
Bicycles
Swimming
Golfing
Fishing
Hot Springs
Museum
Flying Clubs
Airpark
Upcoming Events
No upcoming events. Is anything happening here soon?
*
*
*

Where exactly on/near the airport is this event taking place?

Is there a webpage with more information for this event?

Who should be contacted for more information?

What is this event all about?

Repeat every
Description
Transient Parking
Fuel Location
Landing & Tie-down Fees
Crew Car Availability
Flying Clubs
WiFi Access
Airport Statistics
Location: Norfolk, NE
Elevation: 1,572ft
Sectional: Omaha
Activation date: Apr 1940
Fuel: 100LL, A (prices)
Runway 14/32: 5,806ft
Runway 02/20: 5,801ft
Access: Open to the public
Current Weather — VFR
  • Weather data is strictly informational and not for flight planning purposes.
  • METAR
    2024-06-17 09:09:00 CDT
    Ceiling Wind Temperature Dewpoint Weather Visbility
    3,900ft 110° @ 18kt, gusts 26kt 64°F 62°F Light thunderstorm rain 7SM
    Clouds: Broken @ 3,900ft, Broken @ 7,000ft, Overcast @ 11,000ft
    Raw: KOFK 171409Z AUTO 11018G26KT 7SM -TSRA BKN039 BKN070 OVC110 18/17 RMK AO2 PK WND 10026/1406 LTG DSNT ALQDS TSB02 P0006 T01780167 $
  • TAF
    2024-06-17 09:00:00 CDT – 2024-06-17 13:00:00 CDT
    Ceiling Wind Weather Visbility
    4,500ft 100° @ 16kt, gusts 22kt Light thunderstorm rain, mist 6SM
    Clouds: Broken @ 4,500ft
    Raw: KOFK 171352Z 1714/1812 10016G22KT 6SM -TSRA BR BKN045CB TEMPO 1714/1715 1SM TSRA BR FM171800 17020G30KT P6SM BKN200 FM180200 17018G30KT P6SM BKN250 WS017/17050KT
  • TAF
    2024-06-17 09:00:00 CDT – 2024-06-17 10:00:00 CDT
    Ceiling Wind Weather Visbility
    Sky clear ° @ kt Thunderstorm rain, mist 1SM
    Raw: KOFK 171352Z 1714/1812 10016G22KT 6SM -TSRA BR BKN045CB TEMPO 1714/1715 1SM TSRA BR FM171800 17020G30KT P6SM BKN200 FM180200 17018G30KT P6SM BKN250 WS017/17050KT
  • TAF
    2024-06-17 13:00:00 CDT – 2024-06-17 21:00:00 CDT
    Ceiling Wind Weather Visbility
    20,000ft 170° @ 20kt, gusts 30kt N/A 6SM
    Clouds: Broken @ 20,000ft
    Raw: KOFK 171352Z 1714/1812 10016G22KT 6SM -TSRA BR BKN045CB TEMPO 1714/1715 1SM TSRA BR FM171800 17020G30KT P6SM BKN200 FM180200 17018G30KT P6SM BKN250 WS017/17050KT
  • TAF
    2024-06-17 21:00:00 CDT – 2024-06-18 07:00:00 CDT
    Ceiling Wind Weather Visbility
    25,000ft 170° @ 18kt, gusts 30kt N/A 6SM
    Clouds: Broken @ 25,000ft
    Raw: KOFK 171352Z 1714/1812 10016G22KT 6SM -TSRA BR BKN045CB TEMPO 1714/1715 1SM TSRA BR FM171800 17020G30KT P6SM BKN200 FM180200 17018G30KT P6SM BKN250 WS017/17050KT
Click/tap to add an annotation marker to the map
Airport Webcams
No webcams added yet.
Direct links to live image URLs will be displayed inline on this page. URLs to separate webpages will be linked to.
URL:
Direct links to live image URLs will be displayed inline on this page. URLs to separate webpages will be linked to.
URL:
Remarks
  • Rwy 20 dsgnd as calm wind rwy. all rwys have l hand tfc only.
  • For cd if una to ctc on fss freq, ctc minneapolis artcc at 651-463-5588.
  • Actvt malsr rwy 02; reil rwys 20 & 32; papi rwys 02, 20, 14, & 32; hirl rwy 02/20; mirl rwy 14/32 - ctaf.
  • For svc aft hrs call 402-841-5130 or 402-992-7914.
  • Self svc fuel avbl 24 hrs for 100ll only.
Comments
Leave a comment What was your experience like at this airport?